Columbiaville, Michigan
Current Conditions -  °F | °C
As of 6:33 AM on Thursday 27 Nov 2014 (Local Time) from KD95 Reporting Station
Overcast Overcast  
Wind Chill: 28°   Ceiling: 4400
Heat Index: 28°   Visibility: 10mi
Dew Point: 22°   Wind: 3mph
Humidity: 80%   Direction: 310°NW
Pressure: 30.1"   Gusts: NA
Location:  43.16°N, 83.41°W
Report Text: KD95 271133Z AUTO 31003KT 10SM OVC044 M02/M06 A3010 RMK AO2 T10251056
Loading
Personal Weather Stations






























Interactive Weather Map New forecast layout! Learn more

10-Day Weather Forecast

Advertisements
Track Severe Weather on mobile